Time;durP1;ratioP1;P1;durP2;ratioP2;P2;SDS_P1;SDS_P2;PMS_P1;PMS_P2;Temp;Humidity;BMP_temperature;BMP_pressure;BME280_temperature;BME280_humidity;BME280_pressure;Samples;Min_cycle;Max_cycle;Signal;HPM_P1;HPM_P2
2023/12/05 00:02:14;;;;;;;88.30;40.90;;;;;;;-128.00;-1.00;-1.00;103119;1255;1004280;-78
2023/12/05 00:04:42;;;;;;;80.40;38.60;;;;;;;-128.00;-1.00;-1.00;103159;1257;1004332;-78
2023/12/05 00:07:09;;;;;;;82.20;39.80;;;;;;;-128.00;-1.00;-1.00;102990;1260;1046289;-78
2023/12/05 00:09:35;;;;;;;80.40;34.00;;;;;;;-128.00;-1.00;-1.00;102835;1255;1004563;-78
2023/12/05 00:12:02;;;;;;;88.00;37.90;;;;;;;-128.00;-1.00;-1.00;103117;1258;1003979;-78
2023/12/05 00:14:29;;;;;;;90.50;40.10;;;;;;;-128.00;-1.00;-1.00;103130;1254;1006515;-78
2023/12/05 00:16:56;;;;;;;96.60;44.10;;;;;;;-128.00;-1.00;-1.00;103152;1254;1004507;-78
2023/12/05 00:19:22;;;;;;;95.50;46.40;;;;;;;-128.00;-1.00;-1.00;103134;1257;1004532;-78
2023/12/05 00:21:49;;;;;;;77.00;35.80;;;;;;;-128.00;-1.00;-1.00;102967;1254;1004450;-78
2023/12/05 00:24:15;;;;;;;78.80;36.80;;;;;;;-128.00;-1.00;-1.00;103009;1256;1004635;-78
2023/12/05 00:26:42;;;;;;;73.20;38.00;;;;;;;-128.00;-1.00;-1.00;103053;1256;1003762;-78
2023/12/05 00:29:09;;;;;;;76.00;33.40;;;;;;;-128.00;-1.00;-1.00;102953;1259;1004403;-78
2023/12/05 00:31:36;;;;;;;78.50;35.80;;;;;;;-128.00;-1.00;-1.00;102969;1254;1005238;-78
2023/12/05 00:34:02;;;;;;;70.00;32.00;;;;;;;-128.00;-1.00;-1.00;103028;1254;1005382;-78
2023/12/05 00:36:29;;;;;;;63.80;30.10;;;;;;;-128.00;-1.00;-1.00;103128;1254;1005186;-78
2023/12/05 00:38:56;;;;;;;60.70;30.20;;;;;;;-128.00;-1.00;-1.00;103100;1254;1004741;-78
2023/12/05 00:41:24;;;;;;;69.20;30.10;;;;;;;-128.00;-1.00;-1.00;103132;1259;1003998;-78
2023/12/05 00:43:51;;;;;;;64.80;31.20;;;;;;;-128.00;-1.00;-1.00;103117;1260;1047044;-78
2023/12/05 00:46:18;;;;;;;68.80;32.00;;;;;;;-128.00;-1.00;-1.00;103072;1257;1003955;-78
2023/12/05 00:48:45;;;;;;;54.20;27.40;;;;;;;-128.00;-1.00;-1.00;103156;1254;1003820;-78
2023/12/05 00:51:11;;;;;;;65.40;30.30;;;;;;;-128.00;-1.00;-1.00;103081;1258;1004210;-77
2023/12/05 00:53:38;;;;;;;56.50;26.70;;;;;;;-128.00;-1.00;-1.00;103053;1254;1004460;-78
2023/12/05 00:56:14;;;;;;;62.50;29.00;;;;;;;-128.00;-1.00;-1.00;103097;1255;1006593;-78
2023/12/05 00:58:41;;;;;;;64.90;29.70;;;;;;;-128.00;-1.00;-1.00;102969;1259;1062585;-78
2023/12/05 01:01:08;;;;;;;59.40;28.60;;;;;;;-128.00;-1.00;-1.00;103129;1254;1004507;-78
2023/12/05 01:03:35;;;;;;;48.70;25.60;;;;;;;-128.00;-1.00;-1.00;103006;1253;1005136;-78
2023/12/05 01:06:01;;;;;;;49.00;26.90;;;;;;;-128.00;-1.00;-1.00;103151;1253;1004422;-78
2023/12/05 01:08:28;;;;;;;55.80;26.00;;;;;;;-128.00;-1.00;-1.00;103463;1254;1005060;-78
2023/12/05 01:10:55;;;;;;;53.60;26.90;;;;;;;-128.00;-1.00;-1.00;103767;1257;1004896;-78
2023/12/05 01:13:21;;;;;;;46.50;24.50;;;;;;;-128.00;-1.00;-1.00;103620;1254;1004514;-78
2023/12/05 01:15:48;;;;;;;56.00;24.60;;;;;;;-128.00;-1.00;-1.00;103286;1254;1004553;-78
2023/12/05 01:18:14;;;;;;;60.00;26.70;;;;;;;-128.00;-1.00;-1.00;103224;1253;1004954;-78
2023/12/05 01:20:41;;;;;;;56.00;25.30;;;;;;;-128.00;-1.00;-1.00;103518;1255;1004825;-78
2023/12/05 01:23:08;;;;;;;54.10;24.50;;;;;;;-128.00;-1.00;-1.00;104016;1253;1004568;-78
2023/12/05 01:25:34;;;;;;;48.70;21.60;;;;;;;-128.00;-1.00;-1.00;104074;1253;1004581;-78
2023/12/05 01:28:02;;;;;;;61.00;28.10;;;;;;;-128.00;-1.00;-1.00;104129;1253;1004828;-79
2023/12/05 01:30:29;;;;;;;49.20;23.90;;;;;;;-128.00;-1.00;-1.00;104584;1255;1003688;-78
2023/12/05 01:32:56;;;;;;;58.60;26.30;;;;;;;-128.00;-1.00;-1.00;104684;1253;1003972;-78
2023/12/05 01:35:22;;;;;;;45.30;22.50;;;;;;;-128.00;-1.00;-1.00;104180;1254;1004551;-78
2023/12/05 01:37:49;;;;;;;54.50;26.00;;;;;;;-128.00;-1.00;-1.00;103782;1254;1005262;-78
2023/12/05 01:40:16;;;;;;;53.50;24.90;;;;;;;-128.00;-1.00;-1.00;103401;1254;1004060;-78
2023/12/05 01:42:43;;;;;;;54.60;24.50;;;;;;;-128.00;-1.00;-1.00;105359;1254;1004140;-78
2023/12/05 01:45:10;;;;;;;46.10;22.70;;;;;;;-128.00;-1.00;-1.00;105598;1253;1004237;-78
2023/12/05 01:47:40;;;;;;;45.40;22.40;;;;;;;-128.00;-1.00;-1.00;105114;1254;1004127;-78
2023/12/05 01:50:17;;;;;;;57.80;25.20;;;;;;;-128.00;-1.00;-1.00;103063;1254;1058167;-78
2023/12/05 01:52:47;;;;;;;50.50;26.30;;;;;;;-128.00;-1.00;-1.00;105574;1254;1060168;-78
2023/12/05 01:55:13;;;;;;;52.70;26.20;;;;;;;-128.00;-1.00;-1.00;105599;1254;1046361;-78
2023/12/05 01:57:40;;;;;;;45.90;23.70;;;;;;;-128.00;-1.00;-1.00;104479;1254;1004209;-78
2023/12/05 02:00:07;;;;;;;57.10;26.90;;;;;;;-128.00;-1.00;-1.00;103026;1254;1004079;-78
2023/12/05 02:02:35;;;;;;;58.00;27.80;;;;;;;-128.00;-1.00;-1.00;103054;1254;1004343;-78
2023/12/05 02:05:03;;;;;;;60.10;27.30;;;;;;;-128.00;-1.00;-1.00;105583;1254;1004630;-78
2023/12/05 02:07:30;;;;;;;49.60;26.60;;;;;;;-128.00;-1.00;-1.00;103117;1253;1004757;-78
2023/12/05 02:09:56;;;;;;;49.10;26.20;;;;;;;-128.00;-1.00;-1.00;102981;1254;1005339;-78
2023/12/05 02:12:23;;;;;;;49.60;25.10;;;;;;;-128.00;-1.00;-1.00;103145;1255;1003931;-78
2023/12/05 02:14:49;;;;;;;46.60;22.90;;;;;;;-128.00;-1.00;-1.00;103174;1254;1005046;-78
2023/12/05 02:17:19;;;;;;;73.90;37.20;;;;;;;-128.00;-1.00;-1.00;103074;1254;1003583;-78
2023/12/05 02:20:01;;;;;;;59.40;27.70;;;;;;;-128.00;-1.00;-1.00;103101;1254;1047949;-78
2023/12/05 02:22:52;;;;;;;49.90;23.70;;;;;;;-128.00;-1.00;-1.00;103148;1254;1049718;-78
2023/12/05 02:25:19;;;;;;;51.70;24.80;;;;;;;-128.00;-1.00;-1.00;105310;1254;1062714;-78
2023/12/05 02:27:46;;;;;;;52.00;26.90;;;;;;;-128.00;-1.00;-1.00;105576;1254;1004822;-78
2023/12/05 02:30:14;;;;;;;50.70;24.30;;;;;;;-128.00;-1.00;-1.00;105414;1254;1003336;-78
2023/12/05 02:32:41;;;;;;;57.40;26.40;;;;;;;-128.00;-1.00;-1.00;105556;1254;1046292;-78
2023/12/05 02:35:08;;;;;;;45.80;23.40;;;;;;;-128.00;-1.00;-1.00;105586;1254;1004178;-78
2023/12/05 02:38:19;;;;;;;54.80;26.80;;;;;;;-128.00;-1.00;-1.00;105441;1254;1004025;-78
2023/12/05 02:41:11;;;;;;;52.50;25.10;;;;;;;-128.00;-1.00;-1.00;102992;1257;1058953;-78
2023/12/05 02:43:46;;;;;;;60.50;28.20;;;;;;;-128.00;-1.00;-1.00;105495;1254;1059814;-78
2023/12/05 02:46:14;;;;;;;52.40;26.00;;;;;;;-128.00;-1.00;-1.00;103351;1254;1046023;-78
2023/12/05 02:48:40;;;;;;;48.40;25.10;;;;;;;-128.00;-1.00;-1.00;102971;1253;1004343;-77
2023/12/05 02:51:07;;;;;;;52.90;27.50;;;;;;;-128.00;-1.00;-1.00;102908;1254;1004772;-78
2023/12/05 02:53:34;;;;;;;58.50;27.70;;;;;;;-128.00;-1.00;-1.00;102842;1254;1005155;-78
2023/12/05 02:56:00;;;;;;;46.70;23.30;;;;;;;-128.00;-1.00;-1.00;103095;1254;1005075;-78
2023/12/05 02:58:28;;;;;;;43.30;23.00;;;;;;;-128.00;-1.00;-1.00;103109;1254;1007556;-78
2023/12/05 03:00:54;;;;;;;48.10;24.10;;;;;;;-128.00;-1.00;-1.00;103066;1254;1003876;-78
2023/12/05 03:03:21;;;;;;;45.30;23.90;;;;;;;-128.00;-1.00;-1.00;102985;1257;1004201;-78
2023/12/05 03:05:48;;;;;;;51.60;24.80;;;;;;;-128.00;-1.00;-1.00;103058;1254;1005465;-78
2023/12/05 03:08:15;;;;;;;45.30;22.50;;;;;;;-128.00;-1.00;-1.00;103043;1254;1003996;-78
2023/12/05 03:10:41;;;;;;;53.80;24.40;;;;;;;-128.00;-1.00;-1.00;103096;1253;1005660;-78
2023/12/05 03:13:08;;;;;;;47.40;22.30;;;;;;;-128.00;-1.00;-1.00;103124;1254;1005399;-78
2023/12/05 03:15:34;;;;;;;49.00;22.00;;;;;;;-128.00;-1.00;-1.00;103075;1254;1004527;-78
2023/12/05 03:18:01;;;;;;;47.80;23.50;;;;;;;-128.00;-1.00;-1.00;103030;1257;1004772;-78
2023/12/05 03:20:27;;;;;;;50.50;24.40;;;;;;;-128.00;-1.00;-1.00;103126;1253;1004709;-78
2023/12/05 03:22:54;;;;;;;46.40;22.40;;;;;;;-128.00;-1.00;-1.00;103176;1254;1004504;-78
2023/12/05 03:25:21;;;;;;;57.70;26.40;;;;;;;-128.00;-1.00;-1.00;103211;1254;1005068;-78
2023/12/05 03:27:47;;;;;;;62.00;28.70;;;;;;;-128.00;-1.00;-1.00;103105;1254;1004840;-78
2023/12/05 03:30:14;;;;;;;53.00;27.00;;;;;;;-128.00;-1.00;-1.00;103203;1254;1005402;-78
2023/12/05 03:32:40;;;;;;;54.90;25.30;;;;;;;-128.00;-1.00;-1.00;102988;1254;1003803;-78
2023/12/05 03:35:07;;;;;;;66.10;29.30;;;;;;;-128.00;-1.00;-1.00;103076;1254;1004544;-78
2023/12/05 03:37:34;;;;;;;52.00;25.80;;;;;;;-128.00;-1.00;-1.00;103079;1253;1005229;-78
2023/12/05 03:40:00;;;;;;;46.40;24.70;;;;;;;-128.00;-1.00;-1.00;103100;1254;1004325;-78
2023/12/05 03:42:27;;;;;;;47.80;23.80;;;;;;;-128.00;-1.00;-1.00;102817;1253;1004349;-78
2023/12/05 03:44:54;;;;;;;48.10;22.60;;;;;;;-128.00;-1.00;-1.00;103099;1253;1005245;-78
2023/12/05 03:47:20;;;;;;;44.00;24.20;;;;;;;-128.00;-1.00;-1.00;103024;1257;1004941;-78
2023/12/05 03:49:47;;;;;;;40.20;20.90;;;;;;;-128.00;-1.00;-1.00;103062;1254;1005170;-78
2023/12/05 03:52:14;;;;;;;46.90;23.60;;;;;;;-128.00;-1.00;-1.00;103040;1253;1005326;-77
2023/12/05 03:54:40;;;;;;;43.20;20.70;;;;;;;-128.00;-1.00;-1.00;102955;1253;1004278;-78
2023/12/05 03:57:07;;;;;;;48.20;22.50;;;;;;;-128.00;-1.00;-1.00;103068;1253;1004607;-78
2023/12/05 03:59:33;;;;;;;42.70;19.90;;;;;;;-128.00;-1.00;-1.00;103001;1253;1004075;-78
2023/12/05 04:02:00;;;;;;;42.80;22.20;;;;;;;-128.00;-1.00;-1.00;103041;1253;1005514;-78
2023/12/05 04:04:26;;;;;;;43.80;20.20;;;;;;;-128.00;-1.00;-1.00;102982;1254;1004620;-78
2023/12/05 04:06:53;;;;;;;35.70;18.80;;;;;;;-128.00;-1.00;-1.00;103000;1254;1005176;-78
2023/12/05 04:09:20;;;;;;;51.80;22.50;;;;;;;-128.00;-1.00;-1.00;102933;1254;1004575;-78
2023/12/05 04:11:47;;;;;;;42.90;20.60;;;;;;;-128.00;-1.00;-1.00;102957;1253;1003886;-78
2023/12/05 04:14:14;;;;;;;42.10;21.10;;;;;;;-128.00;-1.00;-1.00;103087;1253;1004597;-78
2023/12/05 04:16:40;;;;;;;42.20;20.20;;;;;;;-128.00;-1.00;-1.00;103065;1253;1004371;-78
2023/12/05 04:19:07;;;;;;;37.60;18.70;;;;;;;-128.00;-1.00;-1.00;103095;1254;1004765;-78
2023/12/05 04:21:33;;;;;;;43.20;18.60;;;;;;;-128.00;-1.00;-1.00;103029;1254;1003991;-78
2023/12/05 04:24:00;;;;;;;36.30;18.90;;;;;;;-128.00;-1.00;-1.00;103055;1254;1005459;-78
2023/12/05 04:26:27;;;;;;;42.50;22.10;;;;;;;-128.00;-1.00;-1.00;103059;1253;1007323;-78
2023/12/05 04:28:53;;;;;;;44.00;22.00;;;;;;;-128.00;-1.00;-1.00;103055;1257;1004239;-78
2023/12/05 04:31:20;;;;;;;36.00;20.00;;;;;;;-128.00;-1.00;-1.00;103106;1253;1004576;-78
2023/12/05 04:33:46;;;;;;;37.20;20.10;;;;;;;-128.00;-1.00;-1.00;103070;1253;1005231;-78
2023/12/05 04:36:15;;;;;;;43.80;22.00;;;;;;;-128.00;-1.00;-1.00;103106;1253;1004224;-78
2023/12/05 04:38:42;;;;;;;40.20;22.00;;;;;;;-128.00;-1.00;-1.00;103069;1257;1047267;-78
2023/12/05 04:41:08;;;;;;;39.70;21.00;;;;;;;-128.00;-1.00;-1.00;103047;1253;1004955;-78
2023/12/05 04:43:36;;;;;;;40.90;19.90;;;;;;;-128.00;-1.00;-1.00;102941;1254;1004216;-78
2023/12/05 04:46:02;;;;;;;37.60;19.00;;;;;;;-128.00;-1.00;-1.00;103027;1256;1004124;-78
2023/12/05 04:48:29;;;;;;;38.60;18.70;;;;;;;-128.00;-1.00;-1.00;103049;1253;1004119;-78
2023/12/05 04:50:56;;;;;;;52.60;24.40;;;;;;;-128.00;-1.00;-1.00;103132;1253;1003892;-78
2023/12/05 04:53:22;;;;;;;41.90;24.50;;;;;;;-128.00;-1.00;-1.00;103053;1254;1004181;-78
2023/12/05 04:55:49;;;;;;;40.80;22.30;;;;;;;-128.00;-1.00;-1.00;103603;1253;1004474;-78
2023/12/05 04:58:15;;;;;;;40.60;22.70;;;;;;;-128.00;-1.00;-1.00;103111;1253;1004291;-78
2023/12/05 05:00:42;;;;;;;45.80;23.50;;;;;;;-128.00;-1.00;-1.00;103082;1253;1004176;-78
2023/12/05 05:03:08;;;;;;;49.30;24.20;;;;;;;-128.00;-1.00;-1.00;103110;1254;1004098;-78
2023/12/05 05:05:35;;;;;;;51.30;24.20;;;;;;;-128.00;-1.00;-1.00;103093;1253;1004184;-79
2023/12/05 05:08:02;;;;;;;46.20;26.60;;;;;;;-128.00;-1.00;-1.00;103077;1253;1003991;-79
2023/12/05 05:10:28;;;;;;;49.40;26.80;;;;;;;-128.00;-1.00;-1.00;102967;1253;1004466;-78
2023/12/05 05:12:55;;;;;;;52.00;26.70;;;;;;;-128.00;-1.00;-1.00;102993;1253;1005173;-78
2023/12/05 05:15:21;;;;;;;45.40;23.90;;;;;;;-128.00;-1.00;-1.00;103039;1253;1003917;-78
2023/12/05 05:17:48;;;;;;;38.00;18.90;;;;;;;-128.00;-1.00;-1.00;103039;1253;1004478;-78
2023/12/05 05:20:15;;;;;;;42.00;22.80;;;;;;;-128.00;-1.00;-1.00;103045;1253;1004817;-78
2023/12/05 05:22:41;;;;;;;50.20;26.00;;;;;;;-128.00;-1.00;-1.00;103128;1253;1004696;-78
2023/12/05 05:25:08;;;;;;;45.60;22.50;;;;;;;-128.00;-1.00;-1.00;103072;1254;1004075;-78
2023/12/05 05:27:35;;;;;;;37.30;18.50;;;;;;;-128.00;-1.00;-1.00;103078;1253;1004374;-78
2023/12/05 05:30:01;;;;;;;38.80;20.00;;;;;;;-128.00;-1.00;-1.00;103084;1253;1004712;-78
2023/12/05 05:32:28;;;;;;;33.90;19.10;;;;;;;-128.00;-1.00;-1.00;103091;1257;1006083;-78
2023/12/05 05:34:54;;;;;;;42.50;19.70;;;;;;;-128.00;-1.00;-1.00;103077;1253;1004856;-78
2023/12/05 05:37:21;;;;;;;37.10;18.80;;;;;;;-128.00;-1.00;-1.00;103077;1254;1004927;-78
2023/12/05 05:39:47;;;;;;;39.00;18.30;;;;;;;-128.00;-1.00;-1.00;103063;1253;1005004;-78
2023/12/05 05:42:14;;;;;;;35.20;20.60;;;;;;;-128.00;-1.00;-1.00;103044;1253;1006060;-79
2023/12/05 05:44:41;;;;;;;39.90;20.70;;;;;;;-128.00;-1.00;-1.00;103109;1253;1004739;-78
2023/12/05 05:47:07;;;;;;;48.70;22.40;;;;;;;-128.00;-1.00;-1.00;103008;1253;1005829;-78
2023/12/05 05:49:34;;;;;;;45.20;23.70;;;;;;;-128.00;-1.00;-1.00;103096;1253;1004223;-78
2023/12/05 05:52:01;;;;;;;53.10;29.40;;;;;;;-128.00;-1.00;-1.00;103112;1253;1004564;-79
2023/12/05 05:54:27;;;;;;;70.50;31.40;;;;;;;-128.00;-1.00;-1.00;103081;1253;1003570;-78
2023/12/05 05:56:54;;;;;;;63.90;28.50;;;;;;;-128.00;-1.00;-1.00;103033;1253;1004637;-78
2023/12/05 05:59:20;;;;;;;60.40;30.80;;;;;;;-128.00;-1.00;-1.00;103067;1253;1006926;-78
2023/12/05 06:01:47;;;;;;;60.50;27.30;;;;;;;-128.00;-1.00;-1.00;103061;1253;1004338;-77
2023/12/05 06:04:14;;;;;;;55.60;28.80;;;;;;;-128.00;-1.00;-1.00;103124;1253;1004782;-78
2023/12/05 06:06:41;;;;;;;70.50;33.00;;;;;;;-128.00;-1.00;-1.00;103104;1254;1004421;-78
2023/12/05 06:09:08;;;;;;;65.80;31.60;;;;;;;-128.00;-1.00;-1.00;102974;1253;1005308;-79
2023/12/05 06:11:34;;;;;;;75.80;33.20;;;;;;;-128.00;-1.00;-1.00;103014;1254;1007553;-78
2023/12/05 06:14:01;;;;;;;65.40;33.10;;;;;;;-128.00;-1.00;-1.00;103122;1253;1004903;-78
2023/12/05 06:16:28;;;;;;;65.30;28.40;;;;;;;-128.00;-1.00;-1.00;103087;1253;1004019;-78
2023/12/05 06:18:54;;;;;;;53.40;28.30;;;;;;;-128.00;-1.00;-1.00;103097;1253;1004065;-78
2023/12/05 06:21:21;;;;;;;58.40;29.10;;;;;;;-128.00;-1.00;-1.00;103052;1254;1003896;-78
2023/12/05 06:23:47;;;;;;;55.00;28.40;;;;;;;-128.00;-1.00;-1.00;103071;1254;1004974;-77
2023/12/05 06:26:14;;;;;;;52.00;27.20;;;;;;;-128.00;-1.00;-1.00;103115;1254;1004110;-78
2023/12/05 06:28:41;;;;;;;57.30;30.20;;;;;;;-128.00;-1.00;-1.00;103097;1253;1005315;-78
2023/12/05 06:31:08;;;;;;;57.30;33.30;;;;;;;-128.00;-1.00;-1.00;103036;1253;1004260;-78
2023/12/05 06:33:34;;;;;;;76.50;36.20;;;;;;;-128.00;-1.00;-1.00;102933;1253;1004545;-78
2023/12/05 06:36:01;;;;;;;83.20;41.80;;;;;;;-128.00;-1.00;-1.00;103021;1253;1005684;-78
2023/12/05 06:38:27;;;;;;;91.80;43.00;;;;;;;-128.00;-1.00;-1.00;102980;1253;1004322;-78
2023/12/05 06:40:54;;;;;;;94.90;44.20;;;;;;;-128.00;-1.00;-1.00;103115;1253;1004053;-78
2023/12/05 06:43:21;;;;;;;87.60;43.70;;;;;;;-128.00;-1.00;-1.00;103108;1253;1003498;-78
2023/12/05 06:45:47;;;;;;;71.50;39.60;;;;;;;-128.00;-1.00;-1.00;103110;1253;1004204;-78
2023/12/05 06:48:15;;;;;;;74.90;40.40;;;;;;;-128.00;-1.00;-1.00;103085;1253;1004243;-78
2023/12/05 06:50:45;;;;;;;62.10;31.90;;;;;;;-128.00;-1.00;-1.00;103161;1253;1004241;-78
2023/12/05 06:53:12;;;;;;;50.40;26.50;;;;;;;-128.00;-1.00;-1.00;103210;1253;1048844;-78
2023/12/05 06:55:39;;;;;;;54.20;29.10;;;;;;;-128.00;-1.00;-1.00;103204;1254;1004500;-78
2023/12/05 06:58:05;;;;;;;49.10;29.40;;;;;;;-128.00;-1.00;-1.00;103085;1253;1004855;-78
2023/12/05 07:00:32;;;;;;;54.00;27.70;;;;;;;-128.00;-1.00;-1.00;103725;1253;1004742;-79
2023/12/05 07:02:58;;;;;;;48.80;26.90;;;;;;;-128.00;-1.00;-1.00;105631;1252;1004931;-78
2023/12/05 07:05:25;;;;;;;59.10;28.50;;;;;;;-128.00;-1.00;-1.00;105475;1253;1004023;-78
2023/12/05 07:07:52;;;;;;;63.90;33.50;;;;;;;-128.00;-1.00;-1.00;105603;1254;1004921;-78
2023/12/05 07:10:18;;;;;;;64.30;32.00;;;;;;;-128.00;-1.00;-1.00;105585;1253;1003714;-78
2023/12/05 07:12:45;;;;;;;65.30;35.50;;;;;;;-128.00;-1.00;-1.00;105508;1253;1004500;-78
2023/12/05 07:15:11;;;;;;;74.70;36.70;;;;;;;-128.00;-1.00;-1.00;105383;1253;1004813;-78
2023/12/05 07:17:38;;;;;;;68.90;32.70;;;;;;;-128.00;-1.00;-1.00;105491;1253;1004384;-78
2023/12/05 07:20:06;;;;;;;70.30;36.30;;;;;;;-128.00;-1.00;-1.00;105502;1253;1005449;-78
2023/12/05 07:22:33;;;;;;;72.80;32.80;;;;;;;-128.00;-1.00;-1.00;104975;1253;1003902;-78
2023/12/05 07:24:59;;;;;;;74.00;36.90;;;;;;;-128.00;-1.00;-1.00;103567;1253;1004107;-79
2023/12/05 07:27:26;;;;;;;88.10;39.20;;;;;;;-128.00;-1.00;-1.00;103424;1253;1004104;-78
2023/12/05 07:29:52;;;;;;;304.60;144.90;;;;;;;-128.00;-1.00;-1.00;103315;1253;1005314;-79
2023/12/05 07:32:19;;;;;;;164.90;87.70;;;;;;;-128.00;-1.00;-1.00;103253;1253;1004036;-78
2023/12/05 07:34:46;;;;;;;272.10;117.10;;;;;;;-128.00;-1.00;-1.00;103322;1253;1007285;-78
2023/12/05 07:37:12;;;;;;;219.60;102.00;;;;;;;-128.00;-1.00;-1.00;103443;1253;1005282;-78
2023/12/05 07:39:39;;;;;;;115.60;58.20;;;;;;;-128.00;-1.00;-1.00;103323;1253;1004848;-78
2023/12/05 07:42:06;;;;;;;88.40;40.90;;;;;;;-128.00;-1.00;-1.00;103288;1253;1003736;-79
2023/12/05 07:44:33;;;;;;;211.40;90.10;;;;;;;-128.00;-1.00;-1.00;103313;1253;1004296;-78
2023/12/05 07:46:59;;;;;;;122.80;58.90;;;;;;;-128.00;-1.00;-1.00;103531;1253;1004939;-78
2023/12/05 07:49:26;;;;;;;84.30;43.60;;;;;;;-128.00;-1.00;-1.00;103381;1253;1003927;-78
2023/12/05 07:51:52;;;;;;;599.40;272.40;;;;;;;-128.00;-1.00;-1.00;103353;1253;1004002;-79
2023/12/05 07:54:19;;;;;;;376.50;163.50;;;;;;;-128.00;-1.00;-1.00;103410;1254;1004094;-78
2023/12/05 07:56:46;;;;;;;505.60;222.30;;;;;;;-128.00;-1.00;-1.00;103345;1254;1005114;-78
2023/12/05 07:59:12;;;;;;;270.30;128.50;;;;;;;-128.00;-1.00;-1.00;103277;1253;1004322;-78
2023/12/05 08:01:42;;;;;;;145.30;76.50;;;;;;;-128.00;-1.00;-1.00;103358;1254;1004680;-78
2023/12/05 08:04:08;;;;;;;131.90;74.10;;;;;;;-128.00;-1.00;-1.00;104474;1253;1045363;-78
2023/12/05 08:06:35;;;;;;;82.10;48.40;;;;;;;-128.00;-1.00;-1.00;105477;1253;1004085;-78
2023/12/05 08:09:02;;;;;;;61.60;36.90;;;;;;;-128.00;-1.00;-1.00;105557;1253;1004176;-78
2023/12/05 08:11:28;;;;;;;72.10;41.30;;;;;;;-128.00;-1.00;-1.00;105482;1253;1005167;-78
2023/12/05 08:13:55;;;;;;;92.60;55.30;;;;;;;-128.00;-1.00;-1.00;105466;1253;1005009;-78
2023/12/05 08:16:21;;;;;;;126.60;64.50;;;;;;;-128.00;-1.00;-1.00;105491;1253;1004410;-79
2023/12/05 08:18:48;;;;;;;120.30;62.60;;;;;;;-128.00;-1.00;-1.00;105497;1257;1004844;-79
2023/12/05 08:21:14;;;;;;;114.30;63.00;;;;;;;-128.00;-1.00;-1.00;105490;1253;1003707;-79
2023/12/05 08:23:41;;;;;;;113.10;64.10;;;;;;;-128.00;-1.00;-1.00;105561;1253;1005695;-78
2023/12/05 08:26:08;;;;;;;122.90;61.30;;;;;;;-128.00;-1.00;-1.00;105496;1253;1004244;-78
2023/12/05 08:28:36;;;;;;;102.20;55.70;;;;;;;-128.00;-1.00;-1.00;105161;1253;1004335;-78
2023/12/05 08:31:03;;;;;;;148.70;79.40;;;;;;;-128.00;-1.00;-1.00;103282;1253;1003995;-78
2023/12/05 08:33:30;;;;;;;91.70;52.40;;;;;;;-128.00;-1.00;-1.00;103311;1254;1005310;-78
2023/12/05 08:35:56;;;;;;;91.60;48.30;;;;;;;-128.00;-1.00;-1.00;103321;1253;1004957;-78
2023/12/05 08:38:23;;;;;;;84.00;47.50;;;;;;;-128.00;-1.00;-1.00;103277;1253;1006740;-78
2023/12/05 08:40:50;;;;;;;93.30;47.10;;;;;;;-128.00;-1.00;-1.00;103275;1253;1004944;-78
2023/12/05 08:43:17;;;;;;;117.00;58.50;;;;;;;-128.00;-1.00;-1.00;103238;1254;1004919;-78
2023/12/05 08:45:43;;;;;;;121.40;59.70;;;;;;;-128.00;-1.00;-1.00;103369;1254;1004148;-78
2023/12/05 08:48:10;;;;;;;100.60;54.60;;;;;;;-128.00;-1.00;-1.00;103313;1253;1003709;-78
2023/12/05 08:50:37;;;;;;;105.40;56.70;;;;;;;-128.00;-1.00;-1.00;103388;1253;1004470;-78
2023/12/05 08:53:03;;;;;;;90.60;45.50;;;;;;;-128.00;-1.00;-1.00;103312;1253;1005655;-78
2023/12/05 08:55:30;;;;;;;87.10;45.40;;;;;;;-128.00;-1.00;-1.00;103377;1253;1004777;-78
2023/12/05 08:57:57;;;;;;;90.80;42.10;;;;;;;-128.00;-1.00;-1.00;103231;1253;1004152;-78
2023/12/05 09:00:23;;;;;;;72.80;37.20;;;;;;;-128.00;-1.00;-1.00;103152;1253;1004201;-78
2023/12/05 09:02:50;;;;;;;63.80;32.00;;;;;;;-128.00;-1.00;-1.00;103346;1253;1004319;-78
2023/12/05 09:05:16;;;;;;;64.20;31.50;;;;;;;-128.00;-1.00;-1.00;103535;1253;1003851;-78
2023/12/05 09:07:43;;;;;;;51.20;25.80;;;;;;;-128.00;-1.00;-1.00;103507;1253;1004436;-78
2023/12/05 09:10:09;;;;;;;55.80;25.40;;;;;;;-128.00;-1.00;-1.00;103413;1253;1004372;-78
2023/12/05 09:12:36;;;;;;;47.40;25.00;;;;;;;-128.00;-1.00;-1.00;103404;1253;1004700;-78
2023/12/05 09:15:03;;;;;;;61.30;30.70;;;;;;;-128.00;-1.00;-1.00;103397;1253;1006878;-78
2023/12/05 09:17:31;;;;;;;80.00;42.50;;;;;;;-128.00;-1.00;-1.00;103351;1254;1004729;-78
2023/12/05 09:19:58;;;;;;;68.70;39.70;;;;;;;-128.00;-1.00;-1.00;103286;1253;1048108;-78
2023/12/05 09:22:25;;;;;;;66.40;33.20;;;;;;;-128.00;-1.00;-1.00;103323;1253;1004676;-79
2023/12/05 09:24:51;;;;;;;55.40;26.70;;;;;;;-128.00;-1.00;-1.00;103310;1253;1004747;-78
2023/12/05 09:27:18;;;;;;;51.70;25.70;;;;;;;-128.00;-1.00;-1.00;103380;1253;1004799;-78
2023/12/05 09:29:44;;;;;;;57.40;29.10;;;;;;;-128.00;-1.00;-1.00;105285;1253;1003594;-78
2023/12/05 09:32:11;;;;;;;51.90;29.10;;;;;;;-128.00;-1.00;-1.00;105562;1253;1003420;-79
2023/12/05 09:34:38;;;;;;;48.50;28.00;;;;;;;-128.00;-1.00;-1.00;105507;1253;1004372;-79
2023/12/05 09:37:05;;;;;;;38.90;22.00;;;;;;;-128.00;-1.00;-1.00;105524;1253;1003995;-78
2023/12/05 09:39:32;;;;;;;39.10;21.20;;;;;;;-128.00;-1.00;-1.00;105451;1253;1003963;-78
2023/12/05 09:42:03;;;;;;;44.30;23.00;;;;;;;-128.00;-1.00;-1.00;105481;1253;1004051;-78
2023/12/05 09:44:31;;;;;;;45.20;23.80;;;;;;;-128.00;-1.00;-1.00;105547;1257;1046224;-78
2023/12/05 09:46:58;;;;;;;43.80;22.20;;;;;;;-128.00;-1.00;-1.00;105266;1253;1004062;-78
2023/12/05 09:49:26;;;;;;;37.70;22.20;;;;;;;-128.00;-1.00;-1.00;105497;1253;1004443;-79
2023/12/05 09:51:55;;;;;;;42.90;23.30;;;;;;;-128.00;-1.00;-1.00;105504;1253;1004095;-78
2023/12/05 09:54:24;;;;;;;59.90;31.30;;;;;;;-128.00;-1.00;-1.00;105519;1253;1046193;-79
2023/12/05 09:56:51;;;;;;;38.50;20.30;;;;;;;-128.00;-1.00;-1.00;105169;1255;1004153;-79
2023/12/05 09:59:18;;;;;;;37.20;19.50;;;;;;;-128.00;-1.00;-1.00;103430;1253;1004062;-79
2023/12/05 10:01:44;;;;;;;36.20;18.10;;;;;;;-128.00;-1.00;-1.00;103286;1253;1004458;-79
2023/12/05 10:04:11;;;;;;;44.60;21.70;;;;;;;-128.00;-1.00;-1.00;103302;1253;1004126;-79
2023/12/05 10:06:38;;;;;;;34.40;18.50;;;;;;;-128.00;-1.00;-1.00;103394;1253;1004134;-78
2023/12/05 10:09:06;;;;;;;33.50;18.10;;;;;;;-128.00;-1.00;-1.00;103365;1253;1005297;-79
2023/12/05 10:11:33;;;;;;;36.00;18.60;;;;;;;-128.00;-1.00;-1.00;103709;1259;1004500;-78
2023/12/05 10:14:00;;;;;;;29.20;16.00;;;;;;;-128.00;-1.00;-1.00;103096;1253;1004640;-78
2023/12/05 10:16:27;;;;;;;30.00;17.10;;;;;;;-128.00;-1.00;-1.00;103396;1253;1005013;-78
2023/12/05 10:18:53;;;;;;;32.90;16.70;;;;;;;-128.00;-1.00;-1.00;103400;1253;1004129;-78
2023/12/05 10:21:20;;;;;;;30.90;16.30;;;;;;;-128.00;-1.00;-1.00;103528;1253;1004092;-79
2023/12/05 10:23:46;;;;;;;145.90;83.20;;;;;;;-128.00;-1.00;-1.00;103541;1253;1004762;-78
2023/12/05 10:26:13;;;;;;;78.60;38.60;;;;;;;-128.00;-1.00;-1.00;103704;1253;1004320;-79
2023/12/05 10:28:50;;;;;;;51.10;25.30;;;;;;;-128.00;-1.00;-1.00;103659;1253;1004696;-79
2023/12/05 10:31:18;;;;;;;48.40;23.80;;;;;;;-128.00;-1.00;-1.00;105463;1253;1045543;-79
2023/12/05 10:33:45;;;;;;;40.50;22.50;;;;;;;-128.00;-1.00;-1.00;105476;1253;1004722;-79
2023/12/05 10:36:12;;;;;;;39.10;21.50;;;;;;;-128.00;-1.00;-1.00;105526;1256;1004668;-79
2023/12/05 10:38:44;;;;;;;37.10;19.40;;;;;;;-128.00;-1.00;-1.00;105508;1253;1004135;-79
2023/12/05 10:41:10;;;;;;;41.40;20.50;;;;;;;-128.00;-1.00;-1.00;105486;1253;1059294;-79
2023/12/05 10:43:37;;;;;;;40.90;23.30;;;;;;;-128.00;-1.00;-1.00;105516;1255;1003940;-79
2023/12/05 10:46:05;;;;;;;42.20;23.30;;;;;;;-128.00;-1.00;-1.00;105228;1255;1004071;-79
2023/12/05 10:48:33;;;;;;;45.60;21.70;;;;;;;-128.00;-1.00;-1.00;103380;1253;1004867;-79
2023/12/05 10:51:00;;;;;;;53.80;29.10;;;;;;;-128.00;-1.00;-1.00;105424;1253;1058066;-78
2023/12/05 10:53:27;;;;;;;58.10;29.80;;;;;;;-128.00;-1.00;-1.00;105406;1254;1004468;-79
2023/12/05 10:55:54;;;;;;;54.60;28.00;;;;;;;-128.00;-1.00;-1.00;105274;1254;1003855;-79
2023/12/05 10:58:20;;;;;;;53.10;27.50;;;;;;;-128.00;-1.00;-1.00;105400;1254;1004059;-79
2023/12/05 11:00:47;;;;;;;60.00;29.40;;;;;;;-128.00;-1.00;-1.00;105430;1254;1003506;-79